Canguaretama, Brazil
Current Conditions -  °F | °C
As of 9:00 AM on Friday 31 Oct 2014 (Local Time) from SBNT Reporting Station
Broken Clouds Broken Clouds  
Wind Chill: 82°   Ceiling: 2300
Heat Index: 85°   Visibility: 6mi
Dew Point: 68°   Wind: 20mph
Humidity: 62%   Direction: 110°ESE
Pressure: 29.97"   Gusts: NA
Location:  6.38°S, 35.13°W
Report Text: SBNT 311200Z 11017KT 9999 BKN023 SCT050 28/20 Q1015
Loading
Personal Weather Stations






























Interactive Weather Map
Tropical Storm Tracking
New forecast layout! Learn more

10-Day Weather Forecast

Advertisements
Track Severe Weather on mobile